Time;durP1;ratioP1;P1;durP2;ratioP2;P2;SDS_P1;SDS_P2;PMS_P1;PMS_P2;Temp;Humidity;BMP_temperature;BMP_pressure;BME280_temperature;BME280_humidity;BME280_pressure;Samples;Min_cycle;Max_cycle;Signal;HPM_P1;HPM_P2
2021/07/30 00:00:56;;;;;;;;;;;16.30;99.90;;;;;;5048606;28;20027;-74
2021/07/30 00:03:23;;;;;;;;;;;16.30;99.90;;;;;;5048330;28;20375;-74
2021/07/30 00:05:55;;;;;;;;;;;16.30;99.90;;;;;;5031841;28;19955;-74
2021/07/30 00:08:21;;;;;;;;;;;16.30;99.90;;;;;;5033109;28;20015;-74
2021/07/30 00:10:54;;;;;;;;;;;16.30;99.90;;;;;;5031642;28;19975;-74
2021/07/30 00:13:21;;;;;;;;;;;16.30;99.90;;;;;;5031515;28;20375;-74
2021/07/30 00:15:54;;;;;;;;;;;16.20;99.90;;;;;;5047395;28;20028;-74
2021/07/30 00:18:26;;;;;;;;;;;16.20;99.90;;;;;;5048294;28;19975;-74
2021/07/30 00:20:52;;;;;;;;;;;16.20;99.90;;;;;;5031612;28;19990;-75
2021/07/30 00:23:19;;;;;;;;;;;16.10;99.90;;;;;;5032488;28;19952;-74
2021/07/30 00:25:46;;;;;;;;;;;16.10;99.90;;;;;;5032563;28;19965;-74
2021/07/30 00:28:12;;;;;;;;;;;16.00;99.90;;;;;;5032674;28;20395;-74
2021/07/30 00:30:39;;;;;;;;;;;16.00;99.90;;;;;;5047868;28;19925;-74
2021/07/30 00:33:06;;;;;;;;;;;16.00;99.90;;;;;;5030929;28;19956;-74
2021/07/30 00:35:37;;;;;;;;;;;16.00;99.90;;;;;;5032491;28;19933;-73
2021/07/30 00:38:09;;;;;;;;;;;16.00;99.90;;;;;;5032428;28;20343;-74
2021/07/30 00:40:40;;;;;;;;;;;15.90;99.90;;;;;;5030416;28;20406;-74
2021/07/30 00:43:12;;;;;;;;;;;15.90;99.90;;;;;;5032646;28;19995;-74
2021/07/30 00:45:44;;;;;;;;;;;15.90;99.90;;;;;;5033033;28;19987;-74
2021/07/30 00:48:16;;;;;;;;;;;15.90;99.90;;;;;;5048167;28;19968;-74
2021/07/30 00:50:48;;;;;;;;;;;15.90;99.90;;;;;;5031787;28;19924;-74
2021/07/30 00:53:19;;;;;;;;;;;15.90;99.90;;;;;;5047899;28;19968;-74
2021/07/30 00:55:52;;;;;;;;;;;15.90;99.90;;;;;;5030466;28;19933;-74
2021/07/30 00:58:25;;;;;;;;;;;15.80;99.90;;;;;;5026845;28;19991;-75
2021/07/30 01:00:57;;;;;;;;;;;15.70;99.90;;;;;;5010832;28;20326;-74
2021/07/30 01:03:23;;;;;;;;;;;15.70;99.90;;;;;;5027567;28;19983;-74
2021/07/30 01:05:51;;;;;;;;;;;15.60;99.90;;;;;;5027791;28;19975;-74
2021/07/30 01:08:18;;;;;;;;;;;15.60;99.90;;;;;;5027819;28;19929;-74
2021/07/30 01:10:45;;;;;;;;;;;15.60;99.90;;;;;;5011319;28;19969;-75
2021/07/30 01:13:16;;;;;;;;;;;15.60;99.90;;;;;;5011499;28;20368;-74
2021/07/30 01:15:48;;;;;;;;;;;15.60;99.90;;;;;;5011686;28;20029;-74
2021/07/30 01:18:15;;;;;;;;;;;15.50;99.90;;;;;;5028486;28;19996;-74
2021/07/30 01:20:43;;;;;;;;;;;15.50;99.90;;;;;;5027717;28;19929;-74
2021/07/30 01:23:10;;;;;;;;;;;15.50;99.90;;;;;;5027091;28;19975;-75
2021/07/30 01:25:37;;;;;;;;;;;15.40;99.90;;;;;;5011017;28;19972;-75
2021/07/30 01:28:04;;;;;;;;;;;15.40;99.90;;;;;;5010687;28;19967;-75
2021/07/30 01:30:35;;;;;;;;;;;15.40;99.90;;;;;;5011883;28;19925;-75
2021/07/30 01:33:02;;;;;;;;;;;15.40;99.90;;;;;;5010743;28;19961;-75
2021/07/30 01:35:29;;;;;;;;;;;15.40;99.90;;;;;;5011258;28;19980;-74
2021/07/30 01:38:00;;;;;;;;;;;15.40;99.90;;;;;;5027143;28;20029;-75
2021/07/30 01:40:32;;;;;;;;;;;15.40;99.90;;;;;;5027034;28;19961;-75
2021/07/30 01:43:04;;;;;;;;;;;15.40;99.90;;;;;;5011125;28;19973;-74
2021/07/30 01:45:30;;;;;;;;;;;15.40;99.90;;;;;;5012462;28;20097;-74
2021/07/30 01:48:02;;;;;;;;;;;15.30;99.90;;;;;;5027619;28;19980;-75
2021/07/30 01:50:29;;;;;;;;;;;15.30;99.90;;;;;;5011078;28;20033;-75
2021/07/30 01:53:01;;;;;;;;;;;15.30;99.90;;;;;;5012014;28;20355;-75
2021/07/30 01:55:28;;;;;;;;;;;15.30;99.90;;;;;;5010973;28;20439;-75
2021/07/30 01:57:59;;;;;;;;;;;15.30;99.90;;;;;;5010965;28;19926;-75
2021/07/30 02:00:31;;;;;;;;;;;15.30;99.90;;;;;;5026814;28;19961;-74
2021/07/30 02:03:03;;;;;;;;;;;15.30;99.90;;;;;;5010683;28;19929;-75
2021/07/30 02:05:29;;;;;;;;;;;15.30;99.90;;;;;;5010789;28;20451;-75
2021/07/30 02:07:56;;;;;;;;;;;15.30;99.90;;;;;;5028381;28;19984;-75
2021/07/30 02:10:23;;;;;;;;;;;15.20;99.90;;;;;;5015013;28;19961;-75
2021/07/30 02:15:45;;;;;;;;;;;15.20;99.90;;;;;;5016282;28;19979;-75
2021/07/30 02:18:11;;;;;;;;;;;15.20;99.90;;;;;;5031226;28;20027;-74
2021/07/30 02:20:38;;;;;;;;;;;15.20;99.90;;;;;;5031327;28;19972;-75
2021/07/30 02:23:10;;;;;;;;;;;15.10;99.90;;;;;;5030741;28;20338;-74
2021/07/30 02:25:36;;;;;;;;;;;15.10;99.90;;;;;;5014752;28;19960;-75
2021/07/30 02:28:03;;;;;;;;;;;15.10;99.90;;;;;;5014722;28;19925;-75
2021/07/30 02:30:35;;;;;;;;;;;15.00;99.90;;;;;;5016062;28;19953;-74
2021/07/30 02:33:06;;;;;;;;;;;14.90;99.90;;;;;;5030846;28;20482;-74
2021/07/30 02:35:33;;;;;;;;;;;14.90;99.90;;;;;;5014817;28;20020;-74
2021/07/30 02:38:00;;;;;;;;;;;14.90;99.90;;;;;;5030940;28;19929;-75
2021/07/30 02:40:26;;;;;;;;;;;14.90;99.90;;;;;;5030400;28;19925;-74
2021/07/30 02:42:58;;;;;;;;;;;14.80;99.90;;;;;;5030815;28;19926;-74
2021/07/30 02:45:25;;;;;;;;;;;14.90;99.90;;;;;;5030812;28;19925;-75
2021/07/30 02:47:56;;;;;;;;;;;14.90;99.90;;;;;;5015529;28;19932;-74
2021/07/30 02:50:23;;;;;;;;;;;14.90;99.90;;;;;;5014415;28;19980;-75
2021/07/30 02:52:50;;;;;;;;;;;15.00;99.90;;;;;;5014008;28;19964;-74
2021/07/30 02:55:16;;;;;;;;;;;15.10;99.90;;;;;;5030684;28;20388;-74
2021/07/30 02:57:48;;;;;;;;;;;15.10;99.90;;;;;;5029925;28;19931;-74
2021/07/30 03:00:20;;;;;;;;;;;15.10;99.90;;;;;;5014103;28;20041;-74
2021/07/30 03:02:46;;;;;;;;;;;15.00;99.90;;;;;;4997638;28;19930;-74
2021/07/30 03:05:13;;;;;;;;;;;15.00;99.90;;;;;;5014066;28;20017;-75
2021/07/30 03:07:40;;;;;;;;;;;15.00;99.90;;;;;;5013926;28;19936;-74
2021/07/30 03:10:11;;;;;;;;;;;15.10;99.90;;;;;;5013861;28;19969;-74
2021/07/30 03:12:38;;;;;;;;;;;15.10;99.90;;;;;;5013700;28;20202;-74
2021/07/30 03:15:05;;;;;;;;;;;15.10;99.90;;;;;;5030294;28;20023;-74
2021/07/30 03:17:31;;;;;;;;;;;15.10;99.90;;;;;;5013935;28;19964;-74
2021/07/30 03:20:05;;;;;;;;;;;15.10;99.90;;;;;;5013433;28;20032;-74
2021/07/30 03:22:32;;;;;;;;;;;15.00;99.90;;;;;;5029897;28;19936;-74
2021/07/30 03:25:04;;;;;;;;;;;15.00;99.90;;;;;;5029345;28;20402;-74
2021/07/30 03:27:36;;;;;;;;;;;14.90;99.90;;;;;;5013596;28;19925;-74
2021/07/30 03:30:08;;;;;;;;;;;14.80;99.90;;;;;;5013681;28;20434;-74
2021/07/30 03:32:35;;;;;;;;;;;14.70;99.90;;;;;;5014490;28;19925;-74
2021/07/30 03:35:07;;;;;;;;;;;14.70;99.90;;;;;;5014734;28;19969;-74
2021/07/30 03:37:38;;;;;;;;;;;14.70;99.90;;;;;;5014903;28;20032;-74
2021/07/30 03:40:10;;;;;;;;;;;14.60;99.90;;;;;;5029943;28;19929;-74
2021/07/30 03:42:37;;;;;;;;;;;14.60;99.90;;;;;;4996976;28;19972;-74
2021/07/30 03:45:09;;;;;;;;;;;14.70;99.90;;;;;;5029735;28;20004;-74
2021/07/30 03:47:40;;;;;;;;;;;14.70;99.90;;;;;;5014420;28;20388;-74
2021/07/30 03:50:07;;;;;;;;;;;14.80;99.90;;;;;;5029305;28;19960;-74
2021/07/30 03:52:34;;;;;;;;;;;14.90;99.90;;;;;;5012448;28;19995;-75
2021/07/30 03:55:07;;;;;;;;;;;14.90;99.90;;;;;;5028342;28;19937;-74
2021/07/30 03:57:34;;;;;;;;;;;14.90;99.90;;;;;;5013852;28;19987;-74
2021/07/30 04:00:00;;;;;;;;;;;14.90;99.90;;;;;;5028778;28;19948;-74
2021/07/30 04:02:32;;;;;;;;;;;14.70;99.90;;;;;;5012283;28;19988;-74
2021/07/30 04:05:04;;;;;;;;;;;14.60;99.90;;;;;;5012169;28;20348;-74
2021/07/30 04:07:36;;;;;;;;;;;14.50;99.90;;;;;;5028086;28;19965;-74
2021/07/30 04:10:03;;;;;;;;;;;14.40;99.90;;;;;;4996100;28;20020;-74
2021/07/30 04:12:35;;;;;;;;;;;14.40;99.90;;;;;;5027506;28;20040;-74
2021/07/30 04:15:06;;;;;;;;;;;14.40;99.90;;;;;;5028582;28;20419;-74
2021/07/30 04:17:38;;;;;;;;;;;14.40;99.90;;;;;;5028688;28;19929;-74
2021/07/30 04:20:10;;;;;;;;;;;14.50;99.90;;;;;;5012058;28;20016;-74
2021/07/30 04:22:37;;;;;;;;;;;14.50;99.90;;;;;;5028012;28;20296;-74
2021/07/30 04:25:04;;;;;;;;;;;14.50;99.90;;;;;;5013197;28;20032;-74
2021/07/30 04:27:30;;;;;;;;;;;14.50;99.90;;;;;;5028321;28;20299;-74
2021/07/30 04:30:02;;;;;;;;;;;14.60;99.90;;;;;;5012929;28;19983;-74
2021/07/30 04:32:34;;;;;;;;;;;14.70;99.90;;;;;;5027794;28;20028;-74
2021/07/30 04:35:06;;;;;;;;;;;14.70;99.90;;;;;;5013692;28;19925;-74
2021/07/30 04:37:32;;;;;;;;;;;14.70;99.90;;;;;;5012270;28;19964;-74
2021/07/30 04:40:04;;;;;;;;;;;14.60;99.90;;;;;;5013306;28;20052;-74
2021/07/30 04:42:31;;;;;;;;;;;14.70;99.90;;;;;;5028448;28;19926;-74
2021/07/30 04:45:03;;;;;;;;;;;14.80;99.90;;;;;;5013354;28;19929;-74
2021/07/30 04:47:29;;;;;;;;;;;14.90;99.90;;;;;;5012215;28;19957;-74
2021/07/30 04:50:01;;;;;;;;;;;14.90;99.90;;;;;;5028027;28;20319;-74
2021/07/30 04:52:33;;;;;;;;;;;15.00;99.90;;;;;;5028284;28;20020;-74
2021/07/30 04:54:59;;;;;;;;;;;15.00;99.90;;;;;;5011949;28;19971;-74
2021/07/30 04:57:32;;;;;;;;;;;15.00;99.90;;;;;;5027370;28;19979;-74
2021/07/30 04:59:58;;;;;;;;;;;15.10;99.90;;;;;;5011430;28;20013;-74
2021/07/30 05:02:25;;;;;;;;;;;15.10;99.90;;;;;;5027350;28;19958;-75
2021/07/30 05:04:57;;;;;;;;;;;15.10;99.90;;;;;;5012532;28;19964;-74
2021/07/30 05:07:29;;;;;;;;;;;15.10;99.90;;;;;;5027993;28;19968;-74
2021/07/30 05:09:55;;;;;;;;;;;15.10;99.90;;;;;;5028171;28;19930;-74
2021/07/30 05:12:22;;;;;;;;;;;15.10;99.90;;;;;;5012337;28;20019;-74
2021/07/30 05:14:49;;;;;;;;;;;15.10;99.90;;;;;;5027780;28;20383;-75
2021/07/30 05:17:20;;;;;;;;;;;15.10;99.90;;;;;;5011763;28;19929;-74
2021/07/30 05:19:47;;;;;;;;;;;15.10;99.90;;;;;;5011412;28;19926;-74
2021/07/30 05:22:14;;;;;;;;;;;15.20;99.90;;;;;;5011144;28;19971;-74
2021/07/30 05:24:45;;;;;;;;;;;15.20;99.90;;;;;;5027771;28;19956;-75
2021/07/30 05:27:12;;;;;;;;;;;15.20;99.90;;;;;;5028145;28;20121;-74
2021/07/30 05:29:45;;;;;;;;;;;15.30;99.90;;;;;;5012320;28;20023;-74
2021/07/30 05:32:12;;;;;;;;;;;15.30;99.90;;;;;;5010405;28;19991;-74
2021/07/30 05:34:43;;;;;;;;;;;15.40;99.90;;;;;;5011363;28;19925;-75
2021/07/30 05:37:11;;;;;;;;;;;15.50;99.90;;;;;;5011087;28;19929;-74
2021/07/30 05:39:42;;;;;;;;;;;15.50;99.90;;;;;;5027441;28;19976;-74
2021/07/30 05:42:10;;;;;;;;;;;15.60;99.90;;;;;;5027209;28;19929;-75
2021/07/30 05:44:37;;;;;;;;;;;15.60;99.90;;;;;;5017372;28;19968;-74
2021/07/30 05:47:09;;;;;;;;;;;15.70;99.90;;;;;;5046151;28;19925;-74
2021/07/30 05:49:36;;;;;;;;;;;15.80;99.90;;;;;;5030118;28;20390;-75
2021/07/30 05:52:03;;;;;;;;;;;15.80;99.90;;;;;;5029936;28;19929;-74
2021/07/30 05:54:33;;;;;;;;;;;15.90;99.90;;;;;;5039599;28;20362;-74
2021/07/30 05:56:59;;;;;;;;;;;16.00;99.90;;;;;;5026662;28;19972;-75
2021/07/30 05:59:31;;;;;;;;;;;16.00;99.90;;;;;;5007691;28;20016;-74
2021/07/30 06:02:03;;;;;;;;;;;16.10;99.90;;;;;;5049515;28;20405;-75
2021/07/30 06:04:29;;;;;;;;;;;16.20;99.90;;;;;;5066767;28;19925;-75
2021/07/30 06:07:01;;;;;;;;;;;16.20;99.90;;;;;;5054350;28;19925;-74
2021/07/30 06:09:29;;;;;;;;;;;16.20;99.90;;;;;;5044274;28;19929;-75
2021/07/30 06:11:55;;;;;;;;;;;16.30;99.90;;;;;;5025976;28;20383;-75
2021/07/30 06:14:22;;;;;;;;;;;16.30;99.90;;;;;;5019251;28;20396;-74
2021/07/30 06:16:49;;;;;;;;;;;16.30;99.90;;;;;;5026455;28;19930;-74
2021/07/30 06:19:15;;;;;;;;;;;16.40;99.90;;;;;;5026715;28;19964;-74
2021/07/30 06:21:47;;;;;;;;;;;16.50;99.90;;;;;;5026178;28;20294;-75
2021/07/30 06:24:14;;;;;;;;;;;16.50;99.90;;;;;;5031900;28;20360;-75
2021/07/30 06:26:40;;;;;;;;;;;16.50;99.90;;;;;;4992757;28;20011;-75
2021/07/30 06:29:07;;;;;;;;;;;16.60;99.90;;;;;;5009544;28;19925;-74
2021/07/30 06:31:34;;;;;;;;;;;16.70;99.90;;;;;;5009373;28;20346;-74
2021/07/30 06:34:02;;;;;;;;;;;16.80;99.90;;;;;;5014023;28;20238;-74
2021/07/30 06:36:29;;;;;;;;;;;16.80;99.90;;;;;;5036798;28;20295;-75
2021/07/30 06:38:55;;;;;;;;;;;16.90;99.90;;;;;;5045379;28;19998;-74
2021/07/30 06:41:22;;;;;;;;;;;17.00;99.90;;;;;;5038770;28;19930;-74
2021/07/30 06:43:50;;;;;;;;;;;17.10;99.90;;;;;;5034365;28;19932;-74
2021/07/30 06:46:21;;;;;;;;;;;17.20;99.90;;;;;;5029069;28;19979;-75
2021/07/30 06:48:48;;;;;;;;;;;17.40;99.90;;;;;;5026811;28;19987;-74
2021/07/30 06:51:15;;;;;;;;;;;17.40;99.90;;;;;;5027068;28;20068;-75
2021/07/30 06:53:42;;;;;;;;;;;17.50;99.90;;;;;;5028099;28;19947;-75
2021/07/30 06:56:13;;;;;;;;;;;17.60;99.90;;;;;;5030599;28;19929;-74
2021/07/30 06:58:45;;;;;;;;;;;17.70;99.90;;;;;;5047531;28;20020;-74
2021/07/30 07:01:11;;;;;;;;;;;17.90;99.90;;;;;;5053202;28;19987;-75
2021/07/30 07:03:38;;;;;;;;;;;18.00;99.90;;;;;;5051150;28;19925;-74
2021/07/30 07:06:05;;;;;;;;;;;18.10;99.90;;;;;;5033182;28;19968;-74
2021/07/30 07:08:31;;;;;;;;;;;18.20;99.90;;;;;;5034748;28;19925;-74
2021/07/30 07:11:02;;;;;;;;;;;18.30;99.90;;;;;;5034119;28;19933;-75
2021/07/30 07:13:28;;;;;;;;;;;18.40;99.90;;;;;;5049632;28;19933;-74
2021/07/30 07:15:55;;;;;;;;;;;18.50;99.90;;;;;;5033263;28;19979;-74
2021/07/30 07:18:22;;;;;;;;;;;18.60;99.90;;;;;;5049836;28;19932;-74
2021/07/30 07:20:59;;;;;;;;;;;18.70;99.90;;;;;;5049257;28;20015;-74
2021/07/30 07:23:26;;;;;;;;;;;18.80;99.90;;;;;;5051096;28;19972;-74
2021/07/30 07:25:59;;;;;;;;;;;18.90;99.90;;;;;;5034098;28;19987;-74
2021/07/30 07:28:26;;;;;;;;;;;19.10;99.90;;;;;;5049438;28;19986;-74
2021/07/30 07:30:58;;;;;;;;;;;19.20;99.90;;;;;;5032827;28;19925;-74
2021/07/30 07:33:29;;;;;;;;;;;19.30;99.90;;;;;;5048949;28;19951;-74
2021/07/30 07:35:56;;;;;;;;;;;19.30;99.90;;;;;;5032622;28;20020;-74
2021/07/30 07:38:23;;;;;;;;;;;19.50;99.90;;;;;;5049535;28;20511;-74
2021/07/30 07:40:50;;;;;;;;;;;19.60;99.90;;;;;;5052152;28;19929;-74
2021/07/30 07:43:16;;;;;;;;;;;19.70;99.90;;;;;;5045618;28;19995;-74
2021/07/30 07:45:43;;;;;;;;;;;19.80;99.90;;;;;;5006949;28;19936;-74
2021/07/30 07:48:15;;;;;;;;;;;19.90;99.90;;;;;;5028631;28;19929;-74
2021/07/30 07:50:42;;;;;;;;;;;19.90;99.90;;;;;;5028904;28;19965;-75
2021/07/30 07:53:15;;;;;;;;;;;20.10;99.90;;;;;;5011206;28;20015;-74
2021/07/30 07:55:42;;;;;;;;;;;20.20;99.90;;;;;;5029343;28;20024;-75
2021/07/30 07:58:09;;;;;;;;;;;20.30;99.90;;;;;;5012704;28;20024;-74
2021/07/30 08:00:41;;;;;;;;;;;20.40;99.90;;;;;;5013804;28;20020;-75
2021/07/30 08:03:12;;;;;;;;;;;20.50;99.90;;;;;;5028098;28;20395;-75
2021/07/30 08:05:39;;;;;;;;;;;20.60;99.90;;;;;;5011283;28;19988;-75
2021/07/30 08:08:06;;;;;;;;;;;20.70;99.90;;;;;;5012700;28;19968;-75
2021/07/30 08:10:37;;;;;;;;;;;20.90;99.90;;;;;;5012422;28;20338;-75
2021/07/30 08:13:09;;;;;;;;;;;21.00;99.90;;;;;;5027841;28;19961;-74
2021/07/30 08:15:38;;;;;;;;;;;21.10;99.90;;;;;;5019821;28;19983;-75
2021/07/30 08:18:05;;;;;;;;;;;21.30;99.90;;;;;;5032416;28;20362;-75
2021/07/30 08:20:31;;;;;;;;;;;21.40;99.90;;;;;;5027959;28;19982;-75
2021/07/30 08:22:58;;;;;;;;;;;21.50;99.90;;;;;;5048067;28;20006;-75
2021/07/30 08:25:30;;;;;;;;;;;21.60;99.90;;;;;;5031885;28;20027;-75
2021/07/30 08:28:03;;;;;;;;;;;21.80;99.90;;;;;;5047601;28;19929;-75
2021/07/30 08:30:29;;;;;;;;;;;21.90;99.90;;;;;;5048451;28;19968;-75
2021/07/30 08:32:58;;;;;;;;;;;22.00;99.90;;;;;;5032046;28;20519;-75
2021/07/30 08:35:30;;;;;;;;;;;22.10;99.90;;;;;;5031820;28;19925;-75
2021/07/30 08:37:56;;;;;;;;;;;22.20;99.90;;;;;;5048141;28;20020;-75
2021/07/30 08:40:32;;;;;;;;;;;22.30;99.90;;;;;;5047088;28;20046;-75
2021/07/30 08:43:03;;;;;;;;;;;22.50;99.90;;;;;;5046833;28;19951;-75
2021/07/30 08:45:35;;;;;;;;;;;22.60;99.90;;;;;;5047396;28;19948;-75
2021/07/30 08:48:08;;;;;;;;;;;22.70;99.90;;;;;;5031616;28;19975;-75
2021/07/30 08:50:36;;;;;;;;;;;22.80;99.90;;;;;;5047852;28;20028;-75
2021/07/30 08:53:08;;;;;;;;;;;22.80;99.90;;;;;;5046613;28;19933;-75
2021/07/30 08:55:35;;;;;;;;;;;22.90;99.90;;;;;;5031227;28;19984;-75
2021/07/30 08:58:02;;;;;;;;;;;22.90;99.90;;;;;;5047711;28;20294;-75
2021/07/30 09:00:34;;;;;;;;;;;22.90;99.90;;;;;;5047213;28;20020;-75
2021/07/30 09:03:01;;;;;;;;;;;23.00;99.90;;;;;;5047460;28;19956;-75
2021/07/30 09:05:34;;;;;;;;;;;23.10;99.90;;;;;;5046803;28;19975;-75
2021/07/30 09:08:06;;;;;;;;;;;23.20;99.90;;;;;;5032323;28;19979;-75
2021/07/30 09:10:40;;;;;;;;;;;23.40;99.90;;;;;;5046714;28;20039;-75
2021/07/30 09:13:19;;;;;;;;;;;23.50;99.90;;;;;;5046489;28;19979;-75
2021/07/30 09:16:05;;;;;;;;;;;23.60;99.90;;;;;;5047475;28;19925;-75
2021/07/30 09:18:39;;;;;;;;;;;23.60;99.90;;;;;;5047583;28;19947;-75
2021/07/30 09:21:24;;;;;;;;;;;23.70;99.90;;;;;;5047629;28;20019;-75
2021/07/30 09:23:55;;;;;;;;;;;23.80;99.90;;;;;;5048156;28;19926;-75
2021/07/30 09:26:33;;;;;;;;;;;23.90;99.90;;;;;;5031033;28;19929;-75
2021/07/30 09:29:12;;;;;;;;;;;24.00;99.90;;;;;;5046833;28;19967;-75
2021/07/30 09:31:52;;;;;;;;;;;24.00;99.90;;;;;;5046668;28;19929;-73
2021/07/30 09:34:26;;;;;;;;;;;24.00;99.90;;;;;;5047338;28;19952;-75
2021/07/30 09:36:52;;;;;;;;;;;24.10;99.90;;;;;;5047107;28;20016;-75
2021/07/30 09:39:25;;;;;;;;;;;24.30;99.90;;;;;;5046228;28;20021;-75
2021/07/30 09:42:13;;;;;;;;;;;24.30;99.90;;;;;;5046437;28;20441;-75
2021/07/30 09:44:46;;;;;;;;;;;24.50;99.90;;;;;;5046376;28;20016;-75
2021/07/30 09:47:15;;;;;;;;;;;24.50;99.90;;;;;;5035556;28;19979;-75
2021/07/30 09:49:47;;;;;;;;;;;24.50;99.90;;;;;;5020696;28;19972;-75
2021/07/30 09:52:21;;;;;;;;;;;24.60;99.90;;;;;;5050225;28;19999;-75
2021/07/30 09:54:57;;;;;;;;;;;24.70;99.90;;;;;;5002966;28;19966;-75
2021/07/30 09:57:24;;;;;;;;;;;24.70;99.90;;;;;;5042468;28;19925;-75
2021/07/30 09:59:54;;;;;;;;;;;24.60;99.90;;;;;;5037995;28;19935;-75
2021/07/30 10:02:27;;;;;;;;;;;24.80;99.90;;;;;;5066416;28;19975;-75
2021/07/30 10:04:54;;;;;;;;;;;24.90;99.90;;;;;;5046649;28;19929;-75
2021/07/30 10:07:22;;;;;;;;;;;25.00;99.90;;;;;;5013454;28;19956;-75
2021/07/30 10:09:55;;;;;;;;;;;25.10;99.90;;;;;;5034541;28;19928;-75
2021/07/30 10:12:28;;;;;;;;;;;25.10;99.90;;;;;;5020948;28;19955;-75
2021/07/30 10:15:01;;;;;;;;;;;25.20;99.90;;;;;;5018353;28;19925;-75
2021/07/30 10:17:33;;;;;;;;;;;25.20;99.90;;;;;;5022617;28;19949;-75
2021/07/30 10:20:06;;;;;;;;;;;25.30;99.90;;;;;;5019003;28;20568;-75
2021/07/30 10:22:40;;;;;;;;;;;25.30;99.90;;;;;;5037564;28;19976;-74
2021/07/30 10:25:09;;;;;;;;;;;25.40;99.90;;;;;;5004969;28;20288;-74
2021/07/30 10:27:41;;;;;;;;;;;25.50;99.90;;;;;;5017038;28;19929;-74
2021/07/30 10:30:16;;;;;;;;;;;25.60;99.90;;;;;;5015949;28;19925;-75
2021/07/30 10:32:50;;;;;;;;;;;25.70;99.90;;;;;;5028763;28;20272;-76
2021/07/30 10:35:26;;;;;;;;;;;25.80;99.90;;;;;;5023032;28;19929;-74
2021/07/30 10:38:12;;;;;;;;;;;25.80;99.90;;;;;;5025754;28;19952;-74
2021/07/30 10:40:42;;;;;;;;;;;25.90;99.90;;;;;;5021884;28;20431;-75
2021/07/30 10:43:13;;;;;;;;;;;26.00;99.90;;;;;;5021951;28;19929;-74
2021/07/30 10:45:41;;;;;;;;;;;26.00;99.90;;;;;;5035786;28;19929;-74
2021/07/30 10:48:27;;;;;;;;;;;26.00;99.90;;;;;;5022219;28;19925;-74
2021/07/30 10:51:01;;;;;;;;;;;25.90;99.90;;;;;;5042760;28;19933;-74
2021/07/30 10:53:38;;;;;;;;;;;25.90;99.90;;;;;;5027969;28;19936;-74
2021/07/30 10:56:05;;;;;;;;;;;26.00;99.90;;;;;;5054961;28;19979;-74
2021/07/30 10:58:44;;;;;;;;;;;26.00;99.90;;;;;;5033322;28;19933;-74
2021/07/30 11:01:12;;;;;;;;;;;26.10;99.90;;;;;;5057622;28;20391;-74
2021/07/30 11:03:48;;;;;;;;;;;26.10;99.90;;;;;;5070671;28;19931;-74
2021/07/30 11:06:21;;;;;;;;;;;26.30;99.90;;;;;;5051297;28;20414;-75
2021/07/30 11:08:58;;;;;;;;;;;26.30;99.90;;;;;;5033892;28;20363;-75
2021/07/30 11:11:50;;;;;;;;;;;26.40;99.90;;;;;;5041046;28;20007;-75
2021/07/30 11:14:20;;;;;;;;;;;26.30;99.90;;;;;;5049679;28;19983;-74
2021/07/30 11:16:59;;;;;;;;;;;26.40;99.90;;;;;;5049714;28;19925;-74
2021/07/30 11:19:35;;;;;;;;;;;26.40;99.90;;;;;;5049432;28;19925;-74
2021/07/30 11:22:03;;;;;;;;;;;26.50;99.90;;;;;;5032516;28;20024;-74
2021/07/30 11:24:29;;;;;;;;;;;26.60;99.90;;;;;;5049270;28;20031;-74
2021/07/30 11:26:56;;;;;;;;;;;26.70;99.90;;;;;;5033021;28;19925;-74
2021/07/30 11:29:28;;;;;;;;;;;26.60;99.90;;;;;;5033075;28;20024;-74
2021/07/30 11:32:09;;;;;;;;;;;26.60;99.90;;;;;;5019249;28;20450;-74
2021/07/30 11:34:45;;;;;;;;;;;26.70;99.90;;;;;;5014714;28;19931;-75
2021/07/30 11:37:16;;;;;;;;;;;26.90;99.90;;;;;;5038176;28;19925;-74
2021/07/30 11:39:44;;;;;;;;;;;26.90;99.90;;;;;;5038788;28;19925;-74
2021/07/30 11:42:25;;;;;;;;;;;27.10;99.90;;;;;;5036137;28;19925;-74
2021/07/30 11:44:54;;;;;;;;;;;27.30;99.90;;;;;;5020817;28;20013;-74
2021/07/30 11:47:22;;;;;;;;;;;27.30;99.90;;;;;;5016986;28;19925;-74
2021/07/30 11:50:00;;;;;;;;;;;27.40;99.00;;;;;;5012724;28;20447;-74
2021/07/30 11:52:28;;;;;;;;;;;27.60;99.90;;;;;;5015073;28;20477;-75
2021/07/30 11:54:54;;;;;;;;;;;27.60;99.40;;;;;;5023427;28;20382;-74
2021/07/30 11:57:27;;;;;;;;;;;27.60;99.00;;;;;;5029677;28;20020;-74
2021/07/30 11:59:59;;;;;;;;;;;27.70;99.60;;;;;;5054618;28;20399;-74
2021/07/30 12:02:26;;;;;;;;;;;27.60;99.10;;;;;;5064547;28;19962;-74
2021/07/30 12:04:54;;;;;;;;;;;27.60;97.40;;;;;;5033679;28;19933;-75
2021/07/30 12:07:30;;;;;;;;;;;27.60;97.70;;;;;;5045381;28;19925;-75
2021/07/30 12:09:58;;;;;;;;;;;27.70;97.60;;;;;;5041631;28;20015;-75
2021/07/30 12:12:37;;;;;;;;;;;27.70;98.30;;;;;;5024138;28;20621;-74
2021/07/30 12:15:10;;;;;;;;;;;27.80;96.80;;;;;;5024690;28;20016;-75
2021/07/30 12:17:42;;;;;;;;;;;28.00;97.30;;;;;;5033038;28;19925;-74
2021/07/30 12:20:11;;;;;;;;;;;27.90;96.30;;;;;;5047879;28;20307;-75
2021/07/30 12:22:42;;;;;;;;;;;27.80;96.60;;;;;;5049000;28;19941;-75
2021/07/30 12:25:31;;;;;;;;;;;27.80;97.80;;;;;;5032942;28;19999;-75
2021/07/30 12:28:05;;;;;;;;;;;27.80;95.10;;;;;;5055236;28;19974;-75
2021/07/30 12:30:32;;;;;;;;;;;27.90;96.20;;;;;;5068310;28;19928;-75
2021/07/30 12:32:59;;;;;;;;;;;28.00;95.70;;;;;;5049152;28;19929;-75
2021/07/30 12:35:31;;;;;;;;;;;28.10;95.70;;;;;;5048952;28;19948;-75
2021/07/30 12:38:03;;;;;;;;;;;27.90;94.80;;;;;;5046809;28;19925;-75
2021/07/30 12:40:38;;;;;;;;;;;28.10;94.60;;;;;;5065282;28;19928;-75
2021/07/30 12:43:12;;;;;;;;;;;28.20;95.40;;;;;;5061121;28;19936;-75
2021/07/30 12:45:43;;;;;;;;;;;28.20;95.30;;;;;;5068067;28;19978;-75
2021/07/30 12:48:19;;;;;;;;;;;28.40;96.10;;;;;;5036456;28;20023;-75
2021/07/30 12:50:46;;;;;;;;;;;28.50;94.70;;;;;;5044573;28;20032;-75
2021/07/30 12:53:17;;;;;;;;;;;28.50;94.10;;;;;;5027430;28;20016;-75
2021/07/30 12:56:03;;;;;;;;;;;28.50;92.80;;;;;;5031720;28;20449;-74
2021/07/30 12:58:34;;;;;;;;;;;28.50;94.00;;;;;;5033686;28;20342;-74
2021/07/30 13:01:13;;;;;;;;;;;28.70;93.80;;;;;;5034079;28;19984;-74
2021/07/30 13:03:47;;;;;;;;;;;28.80;93.60;;;;;;5036731;28;19967;-75
2021/07/30 13:06:15;;;;;;;;;;;28.90;92.70;;;;;;5050254;28;19940;-74
2021/07/30 13:08:58;;;;;;;;;;;28.90;93.60;;;;;;5048869;28;20391;-74
2021/07/30 13:11:34;;;;;;;;;;;29.00;92.60;;;;;;5063884;28;20020;-75
2021/07/30 13:14:06;;;;;;;;;;;29.00;92.30;;;;;;5038395;28;19929;-75
2021/07/30 13:16:33;;;;;;;;;;;29.00;92.20;;;;;;5042268;28;19947;-74
2021/07/30 13:18:59;;;;;;;;;;;28.90;92.40;;;;;;5056818;28;20022;-74
2021/07/30 13:21:26;;;;;;;;;;;28.70;92.40;;;;;;5044897;28;19948;-74
2021/07/30 13:23:53;;;;;;;;;;;28.80;91.50;;;;;;5045209;28;19926;-75
2021/07/30 13:26:20;;;;;;;;;;;28.90;92.60;;;;;;5023428;28;19932;-74
2021/07/30 13:28:52;;;;;;;;;;;28.90;91.70;;;;;;5041804;28;19932;-74
2021/07/30 13:31:19;;;;;;;;;;;28.80;93.20;;;;;;5050317;28;19929;-75
2021/07/30 13:33:46;;;;;;;;;;;28.90;92.10;;;;;;5048713;28;19925;-74
2021/07/30 13:36:13;;;;;;;;;;;29.00;92.50;;;;;;5035728;28;19955;-74
2021/07/30 13:38:46;;;;;;;;;;;29.20;91.70;;;;;;5045725;28;20350;-74
2021/07/30 13:41:18;;;;;;;;;;;29.20;91.40;;;;;;5034922;28;20019;-75
2021/07/30 13:43:44;;;;;;;;;;;29.20;91.50;;;;;;5067580;28;19935;-74
2021/07/30 13:46:12;;;;;;;;;;;29.30;90.20;;;;;;5064219;28;19925;-74
2021/07/30 13:48:39;;;;;;;;;;;29.10;90.80;;;;;;5055242;28;19971;-74
2021/07/30 13:51:06;;;;;;;;;;;29.20;90.10;;;;;;5058462;28;20443;-74
2021/07/30 13:53:35;;;;;;;;;;;29.40;91.00;;;;;;5055838;28;20015;-75
2021/07/30 13:56:07;;;;;;;;;;;29.70;90.30;;;;;;5040416;28;19926;-75
2021/07/30 13:58:33;;;;;;;;;;;29.80;88.70;;;;;;5032787;28;19979;-74
2021/07/30 14:01:00;;;;;;;;;;;29.80;88.30;;;;;;5039788;28;19978;-75
2021/07/30 14:03:27;;;;;;;;;;;29.70;87.70;;;;;;5020135;28;19976;-74
2021/07/30 14:05:56;;;;;;;;;;;29.50;85.60;;;;;;5018987;28;19972;-75
2021/07/30 14:08:23;;;;;;;;;;;29.50;86.80;;;;;;5036711;28;20430;-74
2021/07/30 14:10:50;;;;;;;;;;;29.50;87.80;;;;;;5041432;28;19968;-75
2021/07/30 14:13:16;;;;;;;;;;;29.60;86.70;;;;;;5037019;28;19932;-75
2021/07/30 14:15:43;;;;;;;;;;;29.60;85.90;;;;;;5044980;28;19925;-75
2021/07/30 14:18:10;;;;;;;;;;;29.70;85.60;;;;;;5031406;28;19987;-75
2021/07/30 14:20:41;;;;;;;;;;;29.90;86.60;;;;;;5044561;28;20344;-75
2021/07/30 14:23:08;;;;;;;;;;;30.00;84.50;;;;;;5018282;28;19929;-74
2021/07/30 14:25:35;;;;;;;;;;;30.20;85.70;;;;;;5024861;28;20123;-74
2021/07/30 14:28:02;;;;;;;;;;;30.30;83.80;;;;;;5030495;28;19929;-75
2021/07/30 14:30:28;;;;;;;;;;;30.30;83.30;;;;;;5047098;28;19925;-75
2021/07/30 14:32:55;;;;;;;;;;;30.50;83.30;;;;;;5031582;28;19987;-75
2021/07/30 14:35:27;;;;;;;;;;;30.50;83.10;;;;;;5046869;28;19925;-75